createdAt,value
2019-01-06T00:01:39.701Z,99242.54
2019-01-06T00:04:31.519Z,99239.96
2019-01-06T00:07:08.502Z,99240.41
2019-01-06T00:09:57.268Z,99245.08
2019-01-06T00:12:45.242Z,99240.74
2019-01-06T00:15:33.119Z,99240.35
2019-01-06T00:18:17.902Z,99243.80
2019-01-06T00:21:06.742Z,99237.81
2019-01-06T00:23:54.773Z,99242.48
2019-01-06T00:26:43.042Z,99233.53
2019-01-06T00:29:31.872Z,99234.80
2019-01-06T00:35:22.837Z,99238.25
2019-01-06T00:38:10.706Z,99230.53
2019-01-06T00:40:58.695Z,99236.95
2019-01-06T00:46:41.391Z,99234.34
2019-01-06T00:49:30.246Z,99229.23
2019-01-06T00:52:19.036Z,99220.61
2019-01-06T00:58:08.823Z,99224.06
2019-01-06T01:00:56.797Z,99217.61
2019-01-06T01:09:51.357Z,99213.69
2019-01-06T01:12:39.338Z,99206.41
2019-01-06T01:15:27.226Z,99197.85
2019-01-06T01:18:15.101Z,99194.02
2019-01-06T01:24:05.416Z,99174.40
2019-01-06T01:26:53.290Z,99175.98
2019-01-06T01:29:44.125Z,99181.14
2019-01-06T01:32:33.637Z,99168.77
2019-01-06T01:35:42.713Z,99164.04
2019-01-06T01:41:33.618Z,99151.16
2019-01-06T01:47:23.354Z,99137.02
2019-01-06T01:56:24.533Z,99141.34
2019-01-06T02:02:15.050Z,99133.63
2019-01-06T02:08:04.986Z,99124.98
2019-01-06T02:13:55.202Z,99116.02
2019-01-06T02:19:45.542Z,99112.33
2019-01-06T02:25:33.368Z,99109.20
2019-01-06T02:34:25.951Z,99105.42
2019-01-06T02:37:12.330Z,99102.78
2019-01-06T02:40:01.103Z,99100.73
2019-01-06T02:54:57.946Z,99091.30
2019-01-06T03:00:48.266Z,99072.81
2019-01-06T03:03:37.049Z,99072.55
2019-01-06T03:12:29.844Z,99060.53
2019-01-06T03:15:17.771Z,99058.33
2019-01-06T03:24:11.589Z,99046.05
2019-01-06T03:26:59.603Z,99047.34
2019-01-06T03:32:49.840Z,99041.36
2019-01-06T03:38:39.914Z,99038.35
2019-01-06T03:47:32.488Z,99045.61
2019-01-06T03:59:28.418Z,99033.23
2019-01-06T04:08:20.831Z,99031.52
2019-01-06T04:17:06.209Z,99040.83
2019-01-06T04:19:54.088Z,99038.75
2019-01-06T04:25:44.002Z,99036.20
2019-01-06T04:28:32.043Z,99034.45
2019-01-06T04:37:06.987Z,99041.33
2019-01-06T04:39:55.028Z,99039.05
2019-01-06T04:46:06.356Z,99041.13
2019-01-06T04:54:58.429Z,99037.34
2019-01-06T05:00:49.909Z,99043.79
2019-01-06T05:03:38.678Z,99045.50
2019-01-06T05:06:26.586Z,99049.79
2019-01-06T05:09:14.470Z,99043.00
2019-01-06T05:15:04.846Z,99039.97
2019-01-06T05:20:55.145Z,99024.20
2019-01-06T05:23:43.587Z,99040.02
2019-01-06T05:29:36.677Z,99032.34
2019-01-06T05:32:25.472Z,99025.48
2019-01-06T05:38:09.982Z,99029.81
2019-01-06T05:40:50.922Z,99017.81
2019-01-06T05:43:30.939Z,99019.09
2019-01-06T05:46:23.056Z,99018.69
2019-01-06T05:49:17.935Z,99018.67
2019-01-06T05:52:08.559Z,99013.13
2019-01-06T05:54:56.563Z,99016.10
2019-01-06T06:00:40.506Z,99031.89
2019-01-06T06:09:29.914Z,99031.94
2019-01-06T06:30:11.953Z,99061.78
2019-01-06T06:39:03.997Z,99066.00
2019-01-06T06:41:52.064Z,99066.32
2019-01-06T06:50:44.084Z,99057.88
2019-01-06T06:56:33.829Z,99056.36
2019-01-06T06:59:21.805Z,99053.80
2019-01-06T07:02:48.856Z,99069.23
2019-01-06T07:05:39.987Z,99058.94
2019-01-06T07:08:27.945Z,99075.55
2019-01-06T07:11:15.904Z,99070.66
2019-01-06T07:17:44.784Z,99071.93
2019-01-06T07:20:32.862Z,99071.98
2019-01-06T07:23:20.769Z,99075.81
2019-01-06T07:26:08.643Z,99079.82
2019-01-06T07:28:56.527Z,99079.82
2019-01-06T07:31:44.413Z,99086.19
2019-01-06T07:34:32.437Z,99090.36
2019-01-06T07:37:21.211Z,99090.20
2019-01-06T07:40:09.095Z,99095.08
2019-01-06T07:42:57.088Z,99094.01
2019-01-06T07:46:04.339Z,99103.82
2019-01-06T07:48:52.354Z,99104.63
2019-01-06T07:51:40.312Z,99104.63
2019-01-06T07:54:28.322Z,99111.91
2019-01-06T08:00:18.939Z,99100.89
2019-01-06T08:03:26.313Z,99111.42
2019-01-06T08:06:14.732Z,99104.82
2019-01-06T08:09:02.616Z,99097.89
2019-01-06T08:11:50.607Z,99106.40
2019-01-06T08:17:40.937Z,99095.64
2019-01-06T08:20:28.819Z,99102.56
2019-01-06T08:23:38.039Z,99099.52
2019-01-06T08:29:27.958Z,99112.59
2019-01-06T08:35:18.222Z,99115.38
2019-01-06T08:41:17.281Z,99117.62
2019-01-06T08:44:05.163Z,99116.61
2019-01-06T08:49:46.132Z,99114.67
2019-01-06T08:52:34.969Z,99112.08
2019-01-06T08:55:22.969Z,99112.54
2019-01-06T08:58:10.858Z,99106.06
2019-01-06T09:00:58.786Z,99110.97
2019-01-06T09:03:46.814Z,99110.34
2019-01-06T09:06:34.825Z,99100.34
2019-01-06T09:12:25.383Z,99097.58
2019-01-06T09:15:14.246Z,99091.38
2019-01-06T09:18:02.129Z,99097.52
2019-01-06T09:20:50.244Z,99087.20
2019-01-06T09:23:30.356Z,99088.22
2019-01-06T09:26:18.240Z,99087.62
2019-01-06T09:29:06.119Z,99086.53
2019-01-06T09:32:02.119Z,99078.27
2019-01-06T09:35:02.861Z,99078.77
2019-01-06T09:37:51.343Z,99073.84
2019-01-06T09:40:39.220Z,99074.08
2019-01-06T09:43:27.214Z,99080.06
2019-01-06T09:46:13.833Z,99084.77
2019-01-06T09:49:02.623Z,99089.11
2019-01-06T09:51:50.620Z,99088.52
2019-01-06T09:54:38.504Z,99095.02
2019-01-06T09:57:26.396Z,99086.45
2019-01-06T10:00:14.401Z,99081.16
2019-01-06T10:03:02.327Z,99079.36
2019-01-06T10:05:50.409Z,99086.00
2019-01-06T10:08:35.231Z,99078.38
2019-01-06T10:11:20.626Z,99079.88
2019-01-06T10:14:09.612Z,99087.50
2019-01-06T10:16:57.511Z,99080.69
2019-01-06T10:19:46.285Z,99083.23
2019-01-06T10:22:34.181Z,99081.23
2019-01-06T10:25:22.075Z,99072.35
2019-01-06T10:28:10.050Z,99075.50
2019-01-06T10:30:58.037Z,99074.38
2019-01-06T10:33:45.974Z,99073.56
2019-01-06T10:36:33.978Z,99069.69
2019-01-06T10:39:21.851Z,99072.09
2019-01-06T10:42:09.758Z,99069.65
2019-01-06T10:44:57.646Z,99064.08
2019-01-06T10:47:45.659Z,99064.59
2019-01-06T10:50:33.562Z,99061.92
2019-01-06T10:53:22.343Z,99064.81
2019-01-06T10:56:10.230Z,99063.09
2019-01-06T10:58:58.113Z,99066.22
2019-01-06T11:01:45.999Z,99068.38
2019-01-06T11:04:33.982Z,99078.20
2019-01-06T11:07:22.043Z,99075.75
2019-01-06T11:10:10.829Z,99070.15
2019-01-06T11:12:58.722Z,99071.69
2019-01-06T11:15:46.713Z,99065.98
2019-01-06T11:18:34.893Z,99066.08
2019-01-06T11:21:22.907Z,99068.72
2019-01-06T11:27:03.623Z,99060.52
2019-01-06T11:29:51.599Z,99064.69
2019-01-06T11:32:39.506Z,99065.46
2019-01-06T11:35:27.602Z,99061.44
2019-01-06T11:38:15.469Z,99067.67
2019-01-06T11:41:08.128Z,99071.84
2019-01-06T11:44:12.029Z,99064.45
2019-01-06T11:46:59.950Z,99065.66
2019-01-06T11:49:47.827Z,99068.87
2019-01-06T11:52:35.817Z,99069.54
2019-01-06T11:55:23.930Z,99071.45
2019-01-06T11:58:12.006Z,99075.00
2019-01-06T12:00:59.885Z,99067.12
2019-01-06T12:03:47.763Z,99061.42
2019-01-06T12:06:35.754Z,99064.44
2019-01-06T12:09:12.618Z,99062.66
2019-01-06T12:12:00.388Z,99063.42
2019-01-06T12:14:48.262Z,99058.83
2019-01-06T12:17:36.181Z,99060.08
2019-01-06T12:20:25.059Z,99060.78
2019-01-06T12:23:12.950Z,99068.87
2019-01-06T12:26:00.867Z,99073.09
2019-01-06T12:28:48.761Z,99067.86
2019-01-06T12:31:36.742Z,99082.91
2019-01-06T12:34:25.532Z,99085.08
2019-01-06T12:37:11.988Z,99087.46
2019-01-06T12:40:00.022Z,99078.27
2019-01-06T12:42:48.006Z,99076.49
2019-01-06T12:45:35.886Z,99076.53
2019-01-06T12:48:23.778Z,99080.71
2019-01-06T12:51:11.658Z,99085.83
2019-01-06T12:53:59.539Z,99093.02
2019-01-06T12:56:47.431Z,99105.31
2019-01-06T12:59:35.301Z,99108.59
2019-01-06T13:02:23.291Z,99104.34
2019-01-06T13:05:11.167Z,99103.42
2019-01-06T13:07:59.040Z,99104.88
2019-01-06T13:10:46.984Z,99108.91
2019-01-06T13:13:36.929Z,99114.53
2019-01-06T13:16:24.747Z,99115.77
2019-01-06T13:19:13.684Z,99116.87
2019-01-06T13:22:02.534Z,99121.62
2019-01-06T13:24:50.527Z,99119.94
2019-01-06T13:27:44.089Z,99130.17
2019-01-06T13:30:22.061Z,99128.92
2019-01-06T13:33:10.046Z,99131.59
2019-01-06T13:35:58.049Z,99138.55
2019-01-06T13:38:45.931Z,99136.73
2019-01-06T13:41:33.823Z,99142.11
2019-01-06T13:44:22.800Z,99143.25
2019-01-06T13:47:11.579Z,99145.45
2019-01-06T13:49:57.248Z,99146.31
2019-01-06T13:52:45.233Z,99146.85
2019-01-06T13:55:33.218Z,99152.80
2019-01-06T13:58:21.204Z,99154.37
2019-01-06T14:01:10.008Z,99155.37
2019-01-06T14:03:57.899Z,99157.11
2019-01-06T14:06:45.870Z,99157.27
2019-01-06T14:09:33.838Z,99161.44
2019-01-06T14:12:21.943Z,99162.25
2019-01-06T14:15:09.842Z,99163.20
2019-01-06T14:17:58.323Z,99165.80
2019-01-06T14:20:46.501Z,99169.73
2019-01-06T14:23:29.154Z,99174.05
2019-01-06T14:26:11.668Z,99175.24
2019-01-06T14:28:59.666Z,99175.01
2019-01-06T14:31:47.981Z,99167.48
2019-01-06T14:34:36.033Z,99170.02
2019-01-06T14:37:24.875Z,99180.47
2019-01-06T14:40:13.650Z,99174.46
2019-01-06T14:43:01.527Z,99178.65
2019-01-06T14:45:49.410Z,99182.11
2019-01-06T14:48:38.136Z,99181.30
2019-01-06T14:51:26.173Z,99181.05
2019-01-06T14:54:08.477Z,99188.35
2019-01-06T14:56:57.254Z,99196.50
2019-01-06T14:59:45.292Z,99194.16
2019-01-06T15:02:34.075Z,99191.52
2019-01-06T15:05:23.368Z,99201.30
2019-01-06T15:08:11.527Z,99201.24
2019-01-06T15:11:00.247Z,99205.66
2019-01-06T15:13:48.165Z,99216.45
2019-01-06T15:16:36.081Z,99221.04
2019-01-06T15:19:23.963Z,99226.43
2019-01-06T15:22:11.958Z,99233.67
2019-01-06T15:24:59.842Z,99237.98
2019-01-06T15:27:47.721Z,99250.12
2019-01-06T15:30:35.605Z,99244.64
2019-01-06T15:33:23.490Z,99254.66
2019-01-06T15:36:11.481Z,99252.75
2019-01-06T15:38:59.478Z,99256.94
2019-01-06T15:41:47.389Z,99255.69
2019-01-06T15:44:35.373Z,99264.31
2019-01-06T15:47:23.358Z,99269.50
2019-01-06T15:50:11.254Z,99270.02
2019-01-06T15:52:59.119Z,99276.27
2019-01-06T15:55:47.442Z,99282.32
2019-01-06T15:58:35.313Z,99287.80
2019-01-06T16:01:23.385Z,99287.33
2019-01-06T16:04:11.404Z,99291.21
2019-01-06T16:07:00.186Z,99283.05
2019-01-06T16:09:48.197Z,99288.84
2019-01-06T16:12:36.169Z,99299.49
2019-01-06T16:15:24.582Z,99303.25
2019-01-06T16:18:12.674Z,99312.50
2019-01-06T16:21:00.562Z,99315.09
2019-01-06T16:23:48.551Z,99318.67
2019-01-06T16:26:36.439Z,99320.83
2019-01-06T16:29:24.381Z,99322.98
2019-01-06T16:32:13.165Z,99323.81
2019-01-06T16:35:01.157Z,99332.09
2019-01-06T16:37:49.126Z,99329.50
2019-01-06T16:40:37.202Z,99335.55
2019-01-06T16:43:25.080Z,99347.33
2019-01-06T16:46:12.953Z,99348.03
2019-01-06T16:49:01.093Z,99357.09
2019-01-06T16:51:49.028Z,99366.32
2019-01-06T16:54:36.910Z,99369.22
2019-01-06T16:57:25.180Z,99374.91
2019-01-06T17:00:13.150Z,99377.58
2019-01-06T17:03:01.162Z,99379.70
2019-01-06T17:05:49.034Z,99385.82
2019-01-06T17:08:37.069Z,99394.41
2019-01-06T17:11:26.174Z,99397.13
2019-01-06T17:14:14.216Z,99408.84
2019-01-06T17:16:54.415Z,99407.91
2019-01-06T17:19:43.178Z,99416.82
2019-01-06T17:22:31.094Z,99416.86
2019-01-06T17:25:19.086Z,99427.33
2019-01-06T17:28:06.998Z,99430.42
2019-01-06T17:30:55.773Z,99432.72
2019-01-06T17:33:43.851Z,99427.61
2019-01-06T17:36:31.735Z,99433.62
2019-01-06T17:39:19.619Z,99436.21
2019-01-06T17:42:06.709Z,99440.12
2019-01-06T17:44:55.494Z,99445.77
2019-01-06T17:47:43.572Z,99452.17
2019-01-06T17:50:31.460Z,99455.62
2019-01-06T17:53:19.385Z,99462.09
2019-01-06T17:56:07.364Z,99466.05
2019-01-06T17:58:55.335Z,99469.03
2019-01-06T18:01:43.363Z,99470.73
2019-01-06T18:04:31.697Z,99467.78
2019-01-06T18:07:20.461Z,99468.27
2019-01-06T18:10:08.430Z,99467.05
2019-01-06T18:12:56.417Z,99472.16
2019-01-06T18:15:44.391Z,99489.94
2019-01-06T18:18:32.413Z,99483.00
2019-01-06T18:21:20.342Z,99493.39
2019-01-06T18:27:22.400Z,99488.05
2019-01-06T18:30:10.330Z,99491.13
2019-01-06T18:32:58.203Z,99484.33
2019-01-06T18:35:46.107Z,99480.51
2019-01-06T18:38:33.980Z,99483.63
2019-01-06T18:41:21.965Z,99490.00
2019-01-06T18:44:09.945Z,99490.37
2019-01-06T18:46:51.305Z,99494.65
2019-01-06T18:49:39.173Z,99499.02
2019-01-06T18:52:27.203Z,99499.92
2019-01-06T18:55:15.078Z,99503.89
2019-01-06T18:58:03.009Z,99515.02
2019-01-06T19:00:50.987Z,99513.35
2019-01-06T19:03:38.864Z,99518.13
2019-01-06T19:06:26.739Z,99525.08
2019-01-06T19:09:14.811Z,99525.97
2019-01-06T19:12:02.673Z,99528.61
2019-01-06T19:14:50.671Z,99531.14
2019-01-06T19:17:41.470Z,99535.67
2019-01-06T19:20:29.917Z,99532.55
2019-01-06T19:23:18.407Z,99538.28
2019-01-06T19:26:07.294Z,99539.57
2019-01-06T19:28:55.186Z,99540.74
2019-01-06T19:31:43.198Z,99541.55
2019-01-06T19:34:31.070Z,99544.19
2019-01-06T19:37:19.065Z,99550.38
2019-01-06T19:40:06.993Z,99558.48
2019-01-06T19:42:55.795Z,99556.69
2019-01-06T19:45:43.686Z,99555.98
2019-01-06T19:48:31.574Z,99551.84
2019-01-06T19:51:19.566Z,99551.84
2019-01-06T19:54:07.564Z,99554.91
2019-01-06T19:56:55.493Z,99557.74
2019-01-06T19:59:44.278Z,99554.45
2019-01-06T20:02:32.359Z,99558.74
2019-01-06T20:05:20.523Z,99567.37
2019-01-06T20:08:08.560Z,99566.09
2019-01-06T20:10:57.366Z,99571.23
2019-01-06T20:13:45.454Z,99576.53
2019-01-06T20:16:33.344Z,99577.29
2019-01-06T20:19:21.321Z,99573.76
2019-01-06T20:22:09.299Z,99587.10
2019-01-06T20:24:58.079Z,99594.41
2019-01-06T20:27:45.961Z,99585.81
2019-01-06T20:30:34.330Z,99590.06
2019-01-06T20:33:15.632Z,99583.56
2019-01-06T20:36:04.419Z,99580.52
2019-01-06T20:38:52.321Z,99584.52
2019-01-06T20:41:40.306Z,99596.09
2019-01-06T20:44:28.317Z,99593.62
2019-01-06T20:47:16.318Z,99594.92
2019-01-06T20:50:04.251Z,99591.19
2019-01-06T20:52:53.096Z,99592.89
2019-01-06T20:55:41.942Z,99596.23
2019-01-06T20:58:30.727Z,99610.05
2019-01-06T21:01:18.597Z,99612.31
2019-01-06T21:04:06.492Z,99613.46
2019-01-06T21:06:54.611Z,99623.63
2019-01-06T21:09:36.678Z,99611.50
2019-01-06T21:12:25.467Z,99607.58
2019-01-06T21:15:13.364Z,99611.73
2019-01-06T21:18:01.360Z,99619.83
2019-01-06T21:20:49.340Z,99619.89
2019-01-06T21:23:29.982Z,99623.77
2019-01-06T21:26:18.759Z,99613.88
2019-01-06T21:29:06.630Z,99611.11
2019-01-06T21:31:54.506Z,99607.00
2019-01-06T21:34:42.411Z,99601.08
2019-01-06T21:37:30.289Z,99603.30
2019-01-06T21:40:18.222Z,99598.52
2019-01-06T21:43:06.657Z,99603.72
2019-01-06T21:45:55.437Z,99596.14
2019-01-06T21:48:43.524Z,99602.28
2019-01-06T21:51:31.401Z,99603.20
2019-01-06T21:54:19.399Z,99604.30
2019-01-06T21:57:07.276Z,99601.91
2019-01-06T21:59:55.147Z,99599.83
2019-01-06T22:02:43.030Z,99597.98
2019-01-06T22:05:31.032Z,99591.80
2019-01-06T22:08:18.998Z,99591.78
2019-01-06T22:10:59.149Z,99592.08
2019-01-06T22:13:47.960Z,99601.46
2019-01-06T22:16:35.889Z,99606.56
2019-01-06T22:19:23.874Z,99600.84
2019-01-06T22:22:12.374Z,99607.30
2019-01-06T22:25:00.322Z,99606.50
2019-01-06T22:27:48.297Z,99607.30
2019-01-06T22:30:36.182Z,99606.05
2019-01-06T22:33:23.955Z,99612.85
2019-01-06T22:36:11.826Z,99608.45
2019-01-06T22:38:59.699Z,99610.70
2019-01-06T22:41:47.691Z,99610.83
2019-01-06T22:44:36.507Z,99607.53
2019-01-06T22:47:24.379Z,99611.33
2019-01-06T22:50:12.266Z,99613.95
2019-01-06T22:53:00.246Z,99613.80
2019-01-06T22:55:48.137Z,99613.75
2019-01-06T22:58:36.128Z,99612.47
2019-01-06T23:01:24.203Z,99607.41
2019-01-06T23:04:12.149Z,99612.82
2019-01-06T23:07:00.040Z,99612.72
2019-01-06T23:09:48.003Z,99615.27
2019-01-06T23:12:26.854Z,99609.36
2019-01-06T23:15:15.641Z,99611.81
2019-01-06T23:18:03.519Z,99621.59
2019-01-06T23:20:51.501Z,99617.63
2019-01-06T23:23:34.137Z,99619.72
2019-01-06T23:26:22.961Z,99630.19
2019-01-06T23:29:11.746Z,99625.52
2019-01-06T23:31:52.713Z,99620.75
2019-01-06T23:37:43.909Z,99622.67
2019-01-06T23:40:35.589Z,99627.66
2019-01-06T23:43:23.961Z,99626.41
2019-01-06T23:46:11.901Z,99630.74
2019-01-06T23:49:00.680Z,99633.78
2019-01-06T23:51:49.364Z,99637.26
2019-01-06T23:54:37.502Z,99639.83
2019-01-06T23:57:25.382Z,99638.64
